createdAt,value
2019-04-06T00:01:34.314Z,19.93
2019-04-06T00:04:36.532Z,23.40
2019-04-06T00:07:38.776Z,21.63
2019-04-06T00:10:41.011Z,20.50
2019-04-06T00:13:43.235Z,19.60
2019-04-06T00:16:45.439Z,19.50
2019-04-06T00:19:47.660Z,22.00
2019-04-06T00:22:49.900Z,24.27
2019-04-06T00:25:52.158Z,22.73
2019-04-06T00:28:54.400Z,22.70
2019-04-06T00:32:05.785Z,21.23
2019-04-06T00:35:08.091Z,20.80
2019-04-06T00:38:10.308Z,22.50
2019-04-06T00:41:12.535Z,23.20
2019-04-06T00:44:16.789Z,20.20
2019-04-06T00:47:17.051Z,22.23
2019-04-06T00:50:19.307Z,22.90
2019-04-06T00:53:21.531Z,19.83
2019-04-06T00:56:23.792Z,19.83
2019-04-06T00:59:26.036Z,19.17
2019-04-06T01:02:28.301Z,20.40
2019-04-06T01:05:30.575Z,20.47
2019-04-06T01:08:32.804Z,17.70
2019-04-06T01:11:35.047Z,19.20
2019-04-06T01:14:37.287Z,20.43
2019-04-06T01:17:39.537Z,21.17
2019-04-06T01:20:41.759Z,19.50
2019-04-06T01:23:43.973Z,19.37
2019-04-06T01:26:46.179Z,19.37
2019-04-06T01:29:48.506Z,20.03
2019-04-06T01:32:50.725Z,19.10
2019-04-06T01:35:52.929Z,19.03
2019-04-06T01:38:55.191Z,20.37
2019-04-06T01:41:57.429Z,19.87
2019-04-06T01:44:59.777Z,18.77
2019-04-06T01:48:01.906Z,18.00
2019-04-06T01:51:04.185Z,19.07
2019-04-06T01:54:06.364Z,21.17
2019-04-06T01:57:08.579Z,17.17
2019-04-06T02:00:11.017Z,19.60
2019-04-06T02:03:13.235Z,17.93
2019-04-06T02:06:15.572Z,18.63
2019-04-06T02:09:17.771Z,17.53
2019-04-06T02:12:20.075Z,20.50
2019-04-06T02:15:22.192Z,17.90
2019-04-06T02:18:24.429Z,21.53
2019-04-06T02:21:26.660Z,20.13
2019-04-06T02:24:28.877Z,18.00
2019-04-06T02:27:31.075Z,18.97
2019-04-06T02:30:36.468Z,20.37
2019-04-06T02:35:49.301Z,20.37
2019-04-06T02:41:02.252Z,18.03
2019-04-06T02:44:04.551Z,19.97
2019-04-06T02:47:06.816Z,18.87
2019-04-06T02:50:09.053Z,20.97
2019-04-06T02:53:11.254Z,20.77
2019-04-06T02:56:13.545Z,20.60
2019-04-06T02:59:15.832Z,20.37
2019-04-06T03:02:18.099Z,21.07
2019-04-06T03:05:20.348Z,19.47
2019-04-06T03:08:22.640Z,18.73
2019-04-06T03:11:24.820Z,18.83
2019-04-06T03:14:27.055Z,20.07
2019-04-06T03:17:29.293Z,18.50
2019-04-06T03:20:31.548Z,16.97
2019-04-06T03:23:33.740Z,21.17
2019-04-06T03:26:35.964Z,19.83
2019-04-06T03:29:38.268Z,19.10
2019-04-06T03:32:40.496Z,20.10
2019-04-06T03:35:48.244Z,18.93
2019-04-06T03:38:45.023Z,17.40
2019-04-06T03:41:47.367Z,18.23
2019-04-06T03:44:49.522Z,18.60
2019-04-06T03:47:51.752Z,17.10
2019-04-06T03:50:54.015Z,16.07
2019-04-06T03:53:56.292Z,17.40
2019-04-06T03:56:58.546Z,18.13
2019-04-06T04:00:00.784Z,17.50
2019-04-06T04:03:03.049Z,18.17
2019-04-06T04:06:05.272Z,17.30
2019-04-06T04:09:07.511Z,16.53
2019-04-06T04:12:09.754Z,18.70
2019-04-06T04:15:12.034Z,16.40
2019-04-06T04:18:14.271Z,18.37
2019-04-06T04:21:16.485Z,16.50
2019-04-06T04:24:18.731Z,17.93
2019-04-06T04:27:28.320Z,16.50
2019-04-06T04:30:32.548Z,18.47
2019-04-06T04:33:25.443Z,18.37
2019-04-06T04:36:27.826Z,18.57
2019-04-06T04:39:29.875Z,19.70
2019-04-06T04:42:32.350Z,20.00
2019-04-06T04:45:34.489Z,18.73
2019-04-06T04:48:36.613Z,18.90
2019-04-06T04:51:38.896Z,17.63
2019-04-06T04:54:41.214Z,21.30
2019-04-06T04:57:45.074Z,20.23
2019-04-06T05:00:45.523Z,19.27
2019-04-06T05:03:47.734Z,19.63
2019-04-06T05:06:50.035Z,22.40
2019-04-06T05:09:52.300Z,22.27
2019-04-06T05:12:54.505Z,19.53
2019-04-06T05:16:13.156Z,21.50
2019-04-06T05:19:15.491Z,21.47
2019-04-06T05:22:17.635Z,19.37
2019-04-06T05:25:19.846Z,23.20
2019-04-06T05:28:22.063Z,28.57
2019-04-06T05:31:24.263Z,26.83
2019-04-06T05:34:26.477Z,26.07
2019-04-06T05:37:28.684Z,24.47
2019-04-06T05:40:30.888Z,22.27
2019-04-06T05:43:33.120Z,20.40
2019-04-06T05:46:35.333Z,24.53
2019-04-06T05:49:37.549Z,21.37
2019-04-06T05:52:39.761Z,25.70
2019-04-06T05:55:41.991Z,29.20
2019-04-06T05:58:44.651Z,22.87
2019-04-06T06:01:48.472Z,23.97
2019-04-06T06:04:48.755Z,23.33
2019-04-06T06:07:50.955Z,23.70
2019-04-06T06:10:53.221Z,25.37
2019-04-06T06:13:55.411Z,22.47
2019-04-06T06:16:57.615Z,23.07
2019-04-06T06:19:59.859Z,22.50
2019-04-06T06:23:02.351Z,26.90
2019-04-06T06:26:04.450Z,21.57
2019-04-06T06:29:07.365Z,27.43
2019-04-06T06:32:09.626Z,23.87
2019-04-06T06:35:11.933Z,26.77
2019-04-06T06:38:14.115Z,27.27
2019-04-06T06:41:16.518Z,27.33
2019-04-06T06:44:18.560Z,27.03
2019-04-06T06:47:20.870Z,28.47
2019-04-06T06:50:23.052Z,27.97
2019-04-06T06:53:25.284Z,27.90
2019-04-06T06:56:27.611Z,24.90
2019-04-06T06:59:29.944Z,24.37
2019-04-06T07:02:32.099Z,25.37
2019-04-06T07:05:34.315Z,27.27
2019-04-06T07:08:36.527Z,26.90
2019-04-06T07:11:38.735Z,29.83
2019-04-06T07:14:40.989Z,28.03
2019-04-06T07:17:43.274Z,27.83
2019-04-06T07:20:45.505Z,30.27
2019-04-06T07:23:47.743Z,26.23
2019-04-06T07:26:49.971Z,28.33
2019-04-06T07:29:52.339Z,29.17
2019-04-06T07:32:55.448Z,27.93
2019-04-06T07:35:56.871Z,27.77
2019-04-06T07:38:58.920Z,29.73
2019-04-06T07:42:01.137Z,28.07
2019-04-06T07:45:03.502Z,30.27
2019-04-06T07:48:05.751Z,29.40
2019-04-06T07:51:08.184Z,27.67
2019-04-06T07:54:10.259Z,29.90
2019-04-06T07:57:12.463Z,28.37
2019-04-06T08:00:14.771Z,25.80
2019-04-06T08:03:17.157Z,30.30
2019-04-06T08:06:19.227Z,28.93
2019-04-06T08:09:21.447Z,30.03
2019-04-06T08:12:23.691Z,29.60
2019-04-06T08:15:25.964Z,28.23
2019-04-06T08:18:28.268Z,30.33
2019-04-06T08:21:30.481Z,29.67
2019-04-06T08:24:32.772Z,29.60
2019-04-06T08:27:35.011Z,30.43
2019-04-06T08:30:45.586Z,29.43
2019-04-06T08:33:39.511Z,31.03
2019-04-06T08:36:41.692Z,30.97
2019-04-06T08:39:43.931Z,31.57
2019-04-06T08:42:46.349Z,30.80
2019-04-06T08:45:48.480Z,30.33
2019-04-06T08:48:50.801Z,31.07
2019-04-06T08:51:53.104Z,29.83
2019-04-06T08:54:55.309Z,30.67
2019-04-06T08:57:57.990Z,29.60
2019-04-06T09:01:00.261Z,30.33
2019-04-06T09:04:02.520Z,29.13
2019-04-06T09:07:04.739Z,30.40
2019-04-06T09:10:07.807Z,28.80
2019-04-06T09:13:10.034Z,29.97
2019-04-06T09:16:12.227Z,30.37
2019-04-06T09:19:14.519Z,28.67
2019-04-06T09:22:16.751Z,27.87
2019-04-06T09:25:18.981Z,29.50
2019-04-06T09:28:21.234Z,28.63
2019-04-06T09:31:23.665Z,27.97
2019-04-06T09:34:25.772Z,28.37
2019-04-06T09:37:28.076Z,26.77
2019-04-06T09:40:30.371Z,25.63
2019-04-06T09:43:32.628Z,27.60
2019-04-06T09:46:40.811Z,27.13
2019-04-06T09:51:51.771Z,25.57
2019-04-06T09:54:58.608Z,25.27
2019-04-06T09:58:37.410Z,27.03
2019-04-06T10:01:47.059Z,24.07
2019-04-06T10:06:57.992Z,25.57
2019-04-06T10:10:04.860Z,25.50
2019-04-06T10:14:20.773Z,22.80
2019-04-06T10:17:31.581Z,23.40
2019-04-06T10:20:42.075Z,22.47
2019-04-06T10:24:04.833Z,21.10
2019-04-06T10:27:27.476Z,20.40
2019-04-06T10:32:36.450Z,19.40
2019-04-06T10:35:44.034Z,20.40
2019-04-06T10:38:51.971Z,19.57
2019-04-06T10:42:07.540Z,20.37
2019-04-06T10:45:20.269Z,19.90
2019-04-06T10:48:29.198Z,20.47
2019-04-06T10:51:36.875Z,19.23
2019-04-06T10:54:59.731Z,20.47
2019-04-06T10:58:41.459Z,17.87
2019-04-06T11:01:51.048Z,20.53
2019-04-06T11:04:57.904Z,20.47
2019-04-06T11:08:06.575Z,19.43
2019-04-06T11:11:16.899Z,19.73
2019-04-06T11:14:25.197Z,21.47
2019-04-06T11:17:32.939Z,21.17
2019-04-06T11:20:47.845Z,20.87
2019-04-06T11:23:54.646Z,20.07
2019-04-06T11:27:05.212Z,19.37
2019-04-06T11:32:17.038Z,20.93
2019-04-06T11:35:28.715Z,20.13
2019-04-06T11:38:38.435Z,21.77
2019-04-06T11:41:46.659Z,20.87
2019-04-06T11:45:12.147Z,17.53
2019-04-06T11:48:20.016Z,16.80
2019-04-06T11:51:29.659Z,19.10
2019-04-06T11:54:42.308Z,17.73
2019-04-06T11:57:52.020Z,19.70
2019-04-06T12:01:03.843Z,19.47
2019-04-06T12:04:20.601Z,19.10
2019-04-06T12:07:30.096Z,20.30
2019-04-06T12:12:41.034Z,14.63
2019-04-06T12:17:52.035Z,16.80
2019-04-06T12:23:02.009Z,16.27
2019-04-06T12:26:08.747Z,18.33
2019-04-06T12:29:17.061Z,15.00
2019-04-06T12:32:24.427Z,15.73
2019-04-06T12:36:34.926Z,20.83
2019-04-06T12:39:52.626Z,17.20
2019-04-06T12:42:51.802Z,18.10
2019-04-06T12:46:03.537Z,19.07
2019-04-06T12:51:12.303Z,20.03
2019-04-06T12:54:23.036Z,18.40
2019-04-06T12:57:29.866Z,19.47
2019-04-06T13:00:50.954Z,17.57
2019-04-06T13:03:48.618Z,16.60
2019-04-06T13:06:56.783Z,16.90
2019-04-06T13:10:04.715Z,16.67
2019-04-06T13:13:17.248Z,16.87
2019-04-06T13:16:29.908Z,15.90
2019-04-06T13:19:38.062Z,15.73
2019-04-06T13:22:45.795Z,14.47
2019-04-06T13:26:07.515Z,14.77
2019-04-06T13:31:22.300Z,14.43
2019-04-06T13:34:32.288Z,14.03
2019-04-06T13:37:41.940Z,14.57
2019-04-06T13:41:21.759Z,11.77
2019-04-06T13:44:59.408Z,11.30
2019-04-06T13:48:09.068Z,11.37
2019-04-06T13:51:16.968Z,10.93
2019-04-06T13:55:26.600Z,10.47
2019-04-06T13:59:06.719Z,11.43
2019-04-06T14:02:46.208Z,11.30
2019-04-06T14:05:53.045Z,10.60
2019-04-06T14:11:05.853Z,10.77
2019-04-06T14:16:20.804Z,10.50
2019-04-06T14:19:33.238Z,10.63
2019-04-06T14:23:11.460Z,10.23
2019-04-06T14:26:20.060Z,10.93
2019-04-06T14:29:29.199Z,11.00
2019-04-06T14:32:39.812Z,10.73
2019-04-06T14:35:47.387Z,10.27
2019-04-06T14:38:55.333Z,9.70
2019-04-06T14:42:08.497Z,10.10
2019-04-06T14:45:16.727Z,10.70
2019-04-06T14:48:25.574Z,9.83
2019-04-06T14:53:36.965Z,9.67
2019-04-06T14:56:47.385Z,9.23
2019-04-06T14:59:56.470Z,9.27
2019-04-06T15:03:37.942Z,8.87
2019-04-06T15:06:47.545Z,9.30
2019-04-06T15:11:02.153Z,9.60
2019-04-06T15:14:13.789Z,9.10
2019-04-06T15:17:23.439Z,10.07
2019-04-06T15:20:30.307Z,10.23
2019-04-06T15:23:41.023Z,9.73
2019-04-06T15:28:49.989Z,9.73
2019-04-06T15:31:57.731Z,8.90
2019-04-06T15:35:21.846Z,7.50
2019-04-06T15:38:31.240Z,7.47
2019-04-06T15:41:40.001Z,8.57
2019-04-06T15:44:47.770Z,8.53
2019-04-06T15:47:55.438Z,8.47
2019-04-06T15:51:08.528Z,9.13
2019-04-06T15:54:15.834Z,8.17
2019-04-06T15:57:26.069Z,8.40
2019-04-06T16:00:36.055Z,8.57
2019-04-06T16:03:45.987Z,7.33
2019-04-06T16:06:58.519Z,6.90
2019-04-06T16:10:06.465Z,7.20
2019-04-06T16:13:14.316Z,6.87
2019-04-06T16:16:52.051Z,6.43
2019-04-06T16:19:59.679Z,7.53
2019-04-06T16:25:10.665Z,6.70
2019-04-06T16:28:19.538Z,7.47
2019-04-06T16:31:32.151Z,7.17
2019-04-06T16:34:40.069Z,7.13
2019-04-06T16:37:48.004Z,6.70
2019-04-06T16:40:55.379Z,6.83
2019-04-06T16:44:18.975Z,6.30
2019-04-06T16:49:28.169Z,5.57
2019-04-06T16:52:49.742Z,5.50
2019-04-06T16:56:16.275Z,6.33
2019-04-06T16:59:25.086Z,7.50
2019-04-06T17:02:33.036Z,7.47
2019-04-06T17:05:39.870Z,6.77
2019-04-06T17:09:05.983Z,7.27
2019-04-06T17:14:16.956Z,7.00
2019-04-06T17:17:23.392Z,6.37
2019-04-06T17:20:39.034Z,6.20
2019-04-06T17:23:47.783Z,6.90
2019-04-06T17:26:57.336Z,6.60
2019-04-06T17:30:11.939Z,7.17
2019-04-06T17:33:23.674Z,6.90
2019-04-06T17:38:33.415Z,7.00
2019-04-06T17:41:44.214Z,6.63
2019-04-06T17:44:51.968Z,6.80
2019-04-06T17:48:16.893Z,6.70
2019-04-06T17:51:24.503Z,7.83
2019-04-06T17:56:39.101Z,8.10
2019-04-06T17:59:47.045Z,8.23
2019-04-06T18:02:59.678Z,7.87
2019-04-06T18:06:07.780Z,8.30
2019-04-06T18:09:15.354Z,7.73
2019-04-06T18:12:23.035Z,8.03
2019-04-06T18:15:25.175Z,8.27
2019-04-06T18:18:27.404Z,8.10
2019-04-06T18:21:30.086Z,7.80
2019-04-06T18:24:31.903Z,6.90
2019-04-06T18:27:34.164Z,7.70
2019-04-06T18:30:36.459Z,7.03
2019-04-06T18:33:38.986Z,7.53
2019-04-06T18:36:54.600Z,7.77
2019-04-06T18:39:57.251Z,6.90
2019-04-06T18:42:59.805Z,7.47
2019-04-06T18:46:02.400Z,7.13
2019-04-06T18:49:04.159Z,7.40
2019-04-06T18:52:06.745Z,7.13
2019-04-06T18:55:08.795Z,7.30
2019-04-06T18:58:12.763Z,7.10
2019-04-06T19:01:13.460Z,6.70
2019-04-06T19:04:15.731Z,7.23
2019-04-06T19:07:17.960Z,7.17
2019-04-06T19:10:20.377Z,6.67
2019-04-06T19:13:23.227Z,7.17
2019-04-06T19:16:24.767Z,6.67
2019-04-06T19:19:27.275Z,5.93
2019-04-06T19:22:29.567Z,6.67
2019-04-06T19:25:31.820Z,6.67
2019-04-06T19:28:34.002Z,6.97
2019-04-06T19:31:36.420Z,6.40
2019-04-06T19:34:38.544Z,6.27
2019-04-06T19:37:41.163Z,5.90
2019-04-06T19:40:43.809Z,5.80
2019-04-06T19:43:45.579Z,5.53
2019-04-06T19:46:47.848Z,5.83
2019-04-06T19:49:50.137Z,6.07
2019-04-06T19:52:52.301Z,6.20
2019-04-06T19:55:54.742Z,5.70
2019-04-06T19:58:56.980Z,6.23
2019-04-06T20:01:59.210Z,5.53
2019-04-06T20:05:01.812Z,6.07
2019-04-06T20:08:03.831Z,6.53
2019-04-06T20:11:06.339Z,6.27
2019-04-06T20:14:08.421Z,5.73
2019-04-06T20:17:10.635Z,6.30
2019-04-06T20:20:13.150Z,5.83
2019-04-06T20:23:15.211Z,5.93
2019-04-06T20:26:17.507Z,6.10
2019-04-06T20:29:19.757Z,5.20
2019-04-06T20:32:22.093Z,5.90
2019-04-06T20:35:25.063Z,5.47
2019-04-06T20:38:26.723Z,5.10
2019-04-06T20:41:28.999Z,5.83
2019-04-06T20:44:31.517Z,5.07
2019-04-06T20:47:33.534Z,5.33
2019-04-06T20:50:35.778Z,5.77
2019-04-06T20:53:38.100Z,5.57
2019-04-06T20:56:51.796Z,5.93
2019-04-06T20:59:42.845Z,5.17
2019-04-06T21:02:45.160Z,5.70
2019-04-06T21:05:47.681Z,5.47
2019-04-06T21:08:50.142Z,5.50
2019-04-06T21:11:52.271Z,5.63
2019-04-06T21:14:54.418Z,5.07
2019-04-06T21:17:56.387Z,5.20
2019-04-06T21:20:58.672Z,5.63
2019-04-06T21:24:01.499Z,4.90
2019-04-06T21:27:03.342Z,4.30
2019-04-06T21:30:05.780Z,4.77
2019-04-06T21:33:08.030Z,5.53
2019-04-06T21:36:10.678Z,5.03
2019-04-06T21:39:12.459Z,4.83
2019-04-06T21:42:14.683Z,4.60
2019-04-06T21:45:17.084Z,4.33
2019-04-06T21:48:19.738Z,4.57
2019-04-06T21:51:21.759Z,4.27
2019-04-06T21:54:24.022Z,5.30
2019-04-06T21:57:26.326Z,4.30
2019-04-06T22:00:35.520Z,4.17
2019-04-06T22:03:38.084Z,4.40
2019-04-06T22:06:40.215Z,3.63
2019-04-06T22:09:42.354Z,3.83
2019-04-06T22:12:44.373Z,4.00
2019-04-06T22:15:47.181Z,3.67
2019-04-06T22:18:48.938Z,3.40
2019-04-06T22:21:51.222Z,3.50
2019-04-06T22:24:53.461Z,3.23
2019-04-06T22:27:55.838Z,3.30
2019-04-06T22:30:58.998Z,3.40
2019-04-06T22:34:00.426Z,3.57
2019-04-06T22:37:02.674Z,3.63
2019-04-06T22:40:05.038Z,3.37
2019-04-06T22:43:07.827Z,2.80
2019-04-06T22:46:12.229Z,3.47
2019-04-06T22:49:12.307Z,3.60
2019-04-06T22:52:14.459Z,3.37
2019-04-06T22:55:16.623Z,3.17
2019-04-06T22:58:18.857Z,3.53
2019-04-06T23:01:21.259Z,3.17
2019-04-06T23:04:32.522Z,2.90
2019-04-06T23:07:34.896Z,3.30
2019-04-06T23:10:37.303Z,3.80
2019-04-06T23:13:39.471Z,3.50
2019-04-06T23:16:41.747Z,3.10
2019-04-06T23:19:44.243Z,2.90
2019-04-06T23:22:46.284Z,3.60
2019-04-06T23:25:48.525Z,3.10
2019-04-06T23:28:50.864Z,2.93
2019-04-06T23:31:53.178Z,3.00
2019-04-06T23:34:59.857Z,3.00
2019-04-06T23:37:57.888Z,3.17
2019-04-06T23:41:00.253Z,2.83
2019-04-06T23:44:03.124Z,3.03
2019-04-06T23:47:04.800Z,2.80
2019-04-06T23:50:07.635Z,2.50
2019-04-06T23:53:09.448Z,2.67
2019-04-06T23:56:11.732Z,3.03
2019-04-06T23:59:13.935Z,3.03
